sensor_id;sensor_type;location;lat;lon;timestamp;P1;durP1;ratioP1;P2;durP2;ratioP2
77012;SDS011;67260;53.130;17.982;2023-04-03T00:02:20;10.20;;;3.00;;
77012;SDS011;67260;53.130;17.982;2023-04-03T00:04:46;9.60;;;2.90;;
77012;SDS011;67260;53.130;17.982;2023-04-03T00:07:12;16.20;;;3.20;;
77012;SDS011;67260;53.130;17.982;2023-04-03T00:09:40;11.80;;;3.30;;
77012;SDS011;67260;53.130;17.982;2023-04-03T00:12:06;10.90;;;2.90;;
77012;SDS011;67260;53.130;17.982;2023-04-03T00:14:32;13.80;;;3.30;;
77012;SDS011;67260;53.130;17.982;2023-04-03T00:16:58;14.60;;;5.70;;
77012;SDS011;67260;53.130;17.982;2023-04-03T00:19:24;20.60;;;6.00;;
77012;SDS011;67260;53.130;17.982;2023-04-03T00:21:50;18.60;;;5.80;;
77012;SDS011;67260;53.130;17.982;2023-04-03T00:24:16;13.40;;;4.40;;
77012;SDS011;67260;53.130;17.982;2023-04-03T00:26:42;12.30;;;3.60;;
77012;SDS011;67260;53.130;17.982;2023-04-03T00:29:08;14.10;;;3.20;;
77012;SDS011;67260;53.130;17.982;2023-04-03T00:31:34;7.80;;;2.20;;
77012;SDS011;67260;53.130;17.982;2023-04-03T00:34:00;7.00;;;1.80;;
77012;SDS011;67260;53.130;17.982;2023-04-03T00:36:26;6.00;;;1.80;;
77012;SDS011;67260;53.130;17.982;2023-04-03T00:38:52;4.50;;;1.20;;
77012;SDS011;67260;53.130;17.982;2023-04-03T00:41:18;8.10;;;1.60;;
77012;SDS011;67260;53.130;17.982;2023-04-03T00:43:44;5.80;;;1.50;;
77012;SDS011;67260;53.130;17.982;2023-04-03T00:46:10;5.60;;;1.40;;
77012;SDS011;67260;53.130;17.982;2023-04-03T00:51:03;9.10;;;1.30;;
77012;SDS011;67260;53.130;17.982;2023-04-03T00:53:34;7.40;;;1.50;;
77012;SDS011;67260;53.130;17.982;2023-04-03T00:58:39;5.20;;;1.40;;
77012;SDS011;67260;53.130;17.982;2023-04-03T01:01:11;6.50;;;1.50;;
77012;SDS011;67260;53.130;17.982;2023-04-03T01:03:41;6.50;;;1.80;;
77012;SDS011;67260;53.130;17.982;2023-04-03T01:06:07;5.90;;;1.80;;
77012;SDS011;67260;53.130;17.982;2023-04-03T01:08:34;6.60;;;2.10;;
77012;SDS011;67260;53.130;17.982;2023-04-03T01:11:01;7.70;;;1.50;;
77012;SDS011;67260;53.130;17.982;2023-04-03T01:13:33;9.90;;;1.70;;
77012;SDS011;67260;53.130;17.982;2023-04-03T01:16:01;9.00;;;2.60;;
77012;SDS011;67260;53.130;17.982;2023-04-03T01:18:31;7.90;;;1.90;;
77012;SDS011;67260;53.130;17.982;2023-04-03T01:23:59;9.80;;;2.10;;
77012;SDS011;67260;53.130;17.982;2023-04-03T01:26:50;7.10;;;1.70;;
77012;SDS011;67260;53.130;17.982;2023-04-03T01:29:16;9.30;;;1.80;;
77012;SDS011;67260;53.130;17.982;2023-04-03T01:31:49;10.50;;;2.20;;
77012;SDS011;67260;53.130;17.982;2023-04-03T01:34:20;5.70;;;1.60;;
77012;SDS011;67260;53.130;17.982;2023-04-03T01:36:46;5.50;;;1.40;;
77012;SDS011;67260;53.130;17.982;2023-04-03T01:39:12;7.00;;;1.90;;
77012;SDS011;67260;53.130;17.982;2023-04-03T01:41:38;9.30;;;1.80;;
77012;SDS011;67260;53.130;17.982;2023-04-03T01:44:19;7.20;;;1.80;;
77012;SDS011;67260;53.130;17.982;2023-04-03T01:46:46;11.10;;;2.00;;
77012;SDS011;67260;53.130;17.982;2023-04-03T01:49:12;6.20;;;1.70;;
77012;SDS011;67260;53.130;17.982;2023-04-03T01:51:39;9.50;;;1.90;;
77012;SDS011;67260;53.130;17.982;2023-04-03T01:54:05;6.20;;;1.60;;
77012;SDS011;67260;53.130;17.982;2023-04-03T01:56:32;8.60;;;1.80;;
77012;SDS011;67260;53.130;17.982;2023-04-03T01:58:59;7.80;;;1.70;;
77012;SDS011;67260;53.130;17.982;2023-04-03T02:01:25;5.90;;;1.60;;
77012;SDS011;67260;53.130;17.982;2023-04-03T02:03:51;8.40;;;2.00;;
77012;SDS011;67260;53.130;17.982;2023-04-03T02:06:17;6.40;;;1.20;;
77012;SDS011;67260;53.130;17.982;2023-04-03T02:08:43;8.80;;;1.70;;
77012;SDS011;67260;53.130;17.982;2023-04-03T02:11:09;7.50;;;1.30;;
77012;SDS011;67260;53.130;17.982;2023-04-03T02:13:35;7.90;;;1.60;;
77012;SDS011;67260;53.130;17.982;2023-04-03T02:16:06;5.50;;;1.40;;
77012;SDS011;67260;53.130;17.982;2023-04-03T02:18:34;8.20;;;1.80;;
77012;SDS011;67260;53.130;17.982;2023-04-03T02:21:00;6.90;;;1.70;;
77012;SDS011;67260;53.130;17.982;2023-04-03T02:23:26;6.50;;;1.50;;
77012;SDS011;67260;53.130;17.982;2023-04-03T02:25:52;7.80;;;1.70;;
77012;SDS011;67260;53.130;17.982;2023-04-03T02:28:18;5.80;;;1.90;;
77012;SDS011;67260;53.130;17.982;2023-04-03T02:30:44;6.20;;;1.30;;
77012;SDS011;67260;53.130;17.982;2023-04-03T02:33:10;5.40;;;1.70;;
77012;SDS011;67260;53.130;17.982;2023-04-03T02:35:38;5.50;;;1.30;;
77012;SDS011;67260;53.130;17.982;2023-04-03T02:38:05;5.90;;;1.30;;
77012;SDS011;67260;53.130;17.982;2023-04-03T02:40:31;6.90;;;1.50;;
77012;SDS011;67260;53.130;17.982;2023-04-03T02:42:57;8.50;;;2.20;;
77012;SDS011;67260;53.130;17.982;2023-04-03T02:45:23;5.40;;;1.50;;
77012;SDS011;67260;53.130;17.982;2023-04-03T02:47:49;6.40;;;1.50;;
77012;SDS011;67260;53.130;17.982;2023-04-03T02:50:16;4.60;;;1.50;;
77012;SDS011;67260;53.130;17.982;2023-04-03T02:52:43;6.00;;;1.30;;
77012;SDS011;67260;53.130;17.982;2023-04-03T02:55:09;6.40;;;1.60;;
77012;SDS011;67260;53.130;17.982;2023-04-03T02:57:41;7.60;;;1.80;;
77012;SDS011;67260;53.130;17.982;2023-04-03T03:00:08;4.40;;;1.40;;
77012;SDS011;67260;53.130;17.982;2023-04-03T03:02:35;6.10;;;1.70;;
77012;SDS011;67260;53.130;17.982;2023-04-03T03:05:01;8.40;;;2.10;;
77012;SDS011;67260;53.130;17.982;2023-04-03T03:07:27;6.60;;;1.90;;
77012;SDS011;67260;53.130;17.982;2023-04-03T03:09:54;7.00;;;1.90;;
77012;SDS011;67260;53.130;17.982;2023-04-03T03:12:20;9.40;;;2.40;;
77012;SDS011;67260;53.130;17.982;2023-04-03T03:14:50;8.90;;;2.10;;
77012;SDS011;67260;53.130;17.982;2023-04-03T03:17:16;8.80;;;2.20;;
77012;SDS011;67260;53.130;17.982;2023-04-03T03:19:45;6.50;;;2.40;;
77012;SDS011;67260;53.130;17.982;2023-04-03T03:25:48;11.10;;;3.50;;
77012;SDS011;67260;53.130;17.982;2023-04-03T03:28:14;9.60;;;2.60;;
77012;SDS011;67260;53.130;17.982;2023-04-03T03:30:44;10.50;;;2.60;;
77012;SDS011;67260;53.130;17.982;2023-04-03T03:36:26;6.80;;;2.20;;
77012;SDS011;67260;53.130;17.982;2023-04-03T03:38:59;6.50;;;2.00;;
77012;SDS011;67260;53.130;17.982;2023-04-03T03:41:28;6.80;;;2.10;;
77012;SDS011;67260;53.130;17.982;2023-04-03T03:43:58;9.70;;;2.10;;
77012;SDS011;67260;53.130;17.982;2023-04-03T03:46:27;11.20;;;2.40;;
77012;SDS011;67260;53.130;17.982;2023-04-03T03:49:02;8.20;;;2.00;;
77012;SDS011;67260;53.130;17.982;2023-04-03T03:54:42;10.80;;;2.40;;
77012;SDS011;67260;53.130;17.982;2023-04-03T03:57:41;9.40;;;1.90;;
77012;SDS011;67260;53.130;17.982;2023-04-03T04:00:13;11.20;;;2.50;;
77012;SDS011;67260;53.130;17.982;2023-04-03T04:03:10;8.10;;;2.10;;
77012;SDS011;67260;53.130;17.982;2023-04-03T04:05:40;17.80;;;3.20;;
77012;SDS011;67260;53.130;17.982;2023-04-03T04:08:06;12.90;;;3.30;;
77012;SDS011;67260;53.130;17.982;2023-04-03T04:10:33;18.70;;;4.70;;
77012;SDS011;67260;53.130;17.982;2023-04-03T04:13:00;12.30;;;4.00;;
77012;SDS011;67260;53.130;17.982;2023-04-03T04:17:53;26.40;;;6.70;;
77012;SDS011;67260;53.130;17.982;2023-04-03T04:20:20;60.30;;;14.90;;
77012;SDS011;67260;53.130;17.982;2023-04-03T04:22:47;52.70;;;13.10;;
77012;SDS011;67260;53.130;17.982;2023-04-03T04:25:14;55.80;;;14.60;;
77012;SDS011;67260;53.130;17.982;2023-04-03T04:27:40;46.50;;;13.90;;
77012;SDS011;67260;53.130;17.982;2023-04-03T04:30:07;43.00;;;12.90;;
77012;SDS011;67260;53.130;17.982;2023-04-03T04:32:35;36.50;;;10.80;;
77012;SDS011;67260;53.130;17.982;2023-04-03T04:35:02;29.60;;;8.60;;
77012;SDS011;67260;53.130;17.982;2023-04-03T04:37:30;27.50;;;8.20;;
77012;SDS011;67260;53.130;17.982;2023-04-03T04:39:58;22.50;;;5.90;;
77012;SDS011;67260;53.130;17.982;2023-04-03T04:42:24;14.70;;;4.60;;
77012;SDS011;67260;53.130;17.982;2023-04-03T04:44:52;18.80;;;4.60;;
77012;SDS011;67260;53.130;17.982;2023-04-03T04:47:20;13.00;;;3.30;;
77012;SDS011;67260;53.130;17.982;2023-04-03T04:49:47;11.70;;;3.10;;
77012;SDS011;67260;53.130;17.982;2023-04-03T04:52:14;11.50;;;3.00;;
77012;SDS011;67260;53.130;17.982;2023-04-03T04:54:45;19.50;;;4.00;;
77012;SDS011;67260;53.130;17.982;2023-04-03T04:57:12;14.30;;;3.50;;
77012;SDS011;67260;53.130;17.982;2023-04-03T04:59:38;13.10;;;3.30;;
77012;SDS011;67260;53.130;17.982;2023-04-03T05:02:10;10.10;;;3.70;;
77012;SDS011;67260;53.130;17.982;2023-04-03T05:04:37;12.70;;;3.40;;
77012;SDS011;67260;53.130;17.982;2023-04-03T05:07:08;12.80;;;3.60;;
77012;SDS011;67260;53.130;17.982;2023-04-03T05:12:02;11.50;;;3.60;;
77012;SDS011;67260;53.130;17.982;2023-04-03T05:14:32;8.90;;;3.40;;
77012;SDS011;67260;53.130;17.982;2023-04-03T05:17:02;12.20;;;3.50;;
77012;SDS011;67260;53.130;17.982;2023-04-03T05:19:29;15.70;;;3.30;;
77012;SDS011;67260;53.130;17.982;2023-04-03T05:21:58;14.50;;;3.90;;
77012;SDS011;67260;53.130;17.982;2023-04-03T05:24:28;12.50;;;3.70;;
77012;SDS011;67260;53.130;17.982;2023-04-03T05:26:54;9.70;;;3.10;;
77012;SDS011;67260;53.130;17.982;2023-04-03T05:29:21;11.30;;;2.90;;
77012;SDS011;67260;53.130;17.982;2023-04-03T05:31:51;7.40;;;2.60;;
77012;SDS011;67260;53.130;17.982;2023-04-03T05:34:18;9.90;;;3.10;;
77012;SDS011;67260;53.130;17.982;2023-04-03T05:36:45;12.80;;;5.10;;
77012;SDS011;67260;53.130;17.982;2023-04-03T05:41:40;9.90;;;3.50;;
77012;SDS011;67260;53.130;17.982;2023-04-03T05:44:08;6.50;;;2.20;;
77012;SDS011;67260;53.130;17.982;2023-04-03T05:46:34;4.60;;;1.30;;
77012;SDS011;67260;53.130;17.982;2023-04-03T05:49:03;7.70;;;1.80;;
77012;SDS011;67260;53.130;17.982;2023-04-03T05:51:32;5.60;;;1.60;;
77012;SDS011;67260;53.130;17.982;2023-04-03T05:54:09;4.80;;;1.30;;
77012;SDS011;67260;53.130;17.982;2023-04-03T05:56:43;5.30;;;1.60;;
77012;SDS011;67260;53.130;17.982;2023-04-03T05:59:09;4.10;;;1.30;;
77012;SDS011;67260;53.130;17.982;2023-04-03T06:01:36;4.90;;;1.70;;
77012;SDS011;67260;53.130;17.982;2023-04-03T06:04:03;6.50;;;2.10;;
77012;SDS011;67260;53.130;17.982;2023-04-03T06:09:09;4.90;;;1.60;;
77012;SDS011;67260;53.130;17.982;2023-04-03T06:11:35;4.80;;;1.50;;
77012;SDS011;67260;53.130;17.982;2023-04-03T06:14:01;7.10;;;1.80;;
77012;SDS011;67260;53.130;17.982;2023-04-03T06:16:28;7.40;;;2.20;;
77012;SDS011;67260;53.130;17.982;2023-04-03T06:18:54;8.80;;;2.10;;
77012;SDS011;67260;53.130;17.982;2023-04-03T06:21:22;3.50;;;1.30;;
77012;SDS011;67260;53.130;17.982;2023-04-03T06:23:48;3.80;;;1.50;;
77012;SDS011;67260;53.130;17.982;2023-04-03T06:26:14;5.30;;;1.50;;
77012;SDS011;67260;53.130;17.982;2023-04-03T06:31:06;5.30;;;1.90;;
77012;SDS011;67260;53.130;17.982;2023-04-03T06:35:58;12.40;;;5.50;;
77012;SDS011;67260;53.130;17.982;2023-04-03T06:38:29;12.50;;;6.60;;
77012;SDS011;67260;53.130;17.982;2023-04-03T06:40:55;11.00;;;6.10;;
77012;SDS011;67260;53.130;17.982;2023-04-03T06:43:22;5.60;;;3.50;;
77012;SDS011;67260;53.130;17.982;2023-04-03T06:45:48;5.00;;;2.10;;
77012;SDS011;67260;53.130;17.982;2023-04-03T06:50:40;4.50;;;1.80;;
77012;SDS011;67260;53.130;17.982;2023-04-03T06:53:06;5.80;;;2.20;;
77012;SDS011;67260;53.130;17.982;2023-04-03T06:55:33;8.60;;;5.10;;
77012;SDS011;67260;53.130;17.982;2023-04-03T06:58:03;5.70;;;3.00;;
77012;SDS011;67260;53.130;17.982;2023-04-03T07:00:30;4.90;;;2.30;;
77012;SDS011;67260;53.130;17.982;2023-04-03T07:02:56;5.80;;;1.70;;
77012;SDS011;67260;53.130;17.982;2023-04-03T07:05:24;6.40;;;2.00;;
77012;SDS011;67260;53.130;17.982;2023-04-03T07:07:52;5.10;;;1.70;;
77012;SDS011;67260;53.130;17.982;2023-04-03T07:10:19;5.50;;;1.80;;
77012;SDS011;67260;53.130;17.982;2023-04-03T07:12:51;4.80;;;1.80;;
77012;SDS011;67260;53.130;17.982;2023-04-03T07:15:18;5.50;;;2.10;;
77012;SDS011;67260;53.130;17.982;2023-04-03T07:17:44;8.20;;;2.50;;
77012;SDS011;67260;53.130;17.982;2023-04-03T07:20:10;6.10;;;2.00;;
77012;SDS011;67260;53.130;17.982;2023-04-03T07:22:38;6.80;;;3.00;;
77012;SDS011;67260;53.130;17.982;2023-04-03T07:25:04;6.90;;;2.30;;
77012;SDS011;67260;53.130;17.982;2023-04-03T07:27:32;5.20;;;2.10;;
77012;SDS011;67260;53.130;17.982;2023-04-03T07:29:59;7.50;;;2.40;;
77012;SDS011;67260;53.130;17.982;2023-04-03T07:32:25;5.40;;;1.90;;
77012;SDS011;67260;53.130;17.982;2023-04-03T07:34:51;10.00;;;2.70;;
77012;SDS011;67260;53.130;17.982;2023-04-03T07:37:17;9.30;;;2.40;;
77012;SDS011;67260;53.130;17.982;2023-04-03T07:39:44;9.00;;;2.90;;
77012;SDS011;67260;53.130;17.982;2023-04-03T07:42:14;7.00;;;2.20;;
77012;SDS011;67260;53.130;17.982;2023-04-03T07:44:40;8.00;;;2.70;;
77012;SDS011;67260;53.130;17.982;2023-04-03T07:47:06;5.00;;;2.00;;
77012;SDS011;67260;53.130;17.982;2023-04-03T07:49:33;5.90;;;2.20;;
77012;SDS011;67260;53.130;17.982;2023-04-03T07:52:02;5.60;;;1.90;;
77012;SDS011;67260;53.130;17.982;2023-04-03T07:54:29;6.00;;;2.10;;
77012;SDS011;67260;53.130;17.982;2023-04-03T07:56:55;5.00;;;2.20;;
77012;SDS011;67260;53.130;17.982;2023-04-03T07:59:23;4.90;;;2.10;;
77012;SDS011;67260;53.130;17.982;2023-04-03T08:01:49;3.80;;;1.60;;
77012;SDS011;67260;53.130;17.982;2023-04-03T08:04:19;5.30;;;2.00;;
77012;SDS011;67260;53.130;17.982;2023-04-03T08:06:48;6.50;;;3.00;;
77012;SDS011;67260;53.130;17.982;2023-04-03T08:09:15;8.60;;;5.70;;
77012;SDS011;67260;53.130;17.982;2023-04-03T08:11:41;7.10;;;3.50;;
77012;SDS011;67260;53.130;17.982;2023-04-03T08:14:07;4.10;;;1.70;;
77012;SDS011;67260;53.130;17.982;2023-04-03T08:16:33;4.20;;;1.80;;
77012;SDS011;67260;53.130;17.982;2023-04-03T08:18:59;3.80;;;1.70;;
77012;SDS011;67260;53.130;17.982;2023-04-03T08:21:26;9.90;;;6.20;;
77012;SDS011;67260;53.130;17.982;2023-04-03T08:23:52;5.50;;;3.60;;
77012;SDS011;67260;53.130;17.982;2023-04-03T08:26:19;5.10;;;3.30;;
77012;SDS011;67260;53.130;17.982;2023-04-03T08:28:47;9.80;;;8.10;;
77012;SDS011;67260;53.130;17.982;2023-04-03T08:31:15;5.10;;;1.80;;
77012;SDS011;67260;53.130;17.982;2023-04-03T08:33:44;2.70;;;1.10;;
77012;SDS011;67260;53.130;17.982;2023-04-03T08:36:43;5.40;;;2.00;;
77012;SDS011;67260;53.130;17.982;2023-04-03T08:39:03;3.50;;;1.40;;
77012;SDS011;67260;53.130;17.982;2023-04-03T08:47:23;3.80;;;1.80;;
77012;SDS011;67260;53.130;17.982;2023-04-03T08:49:56;5.70;;;2.10;;
77012;SDS011;67260;53.130;17.982;2023-04-03T08:54:55;4.60;;;1.70;;
77012;SDS011;67260;53.130;17.982;2023-04-03T08:57:35;3.30;;;1.80;;
77012;SDS011;67260;53.130;17.982;2023-04-03T09:00:26;4.50;;;2.10;;
77012;SDS011;67260;53.130;17.982;2023-04-03T09:02:55;4.40;;;1.80;;
77012;SDS011;67260;53.130;17.982;2023-04-03T09:08:27;4.80;;;1.60;;
77012;SDS011;67260;53.130;17.982;2023-04-03T09:11:06;4.40;;;1.80;;
77012;SDS011;67260;53.130;17.982;2023-04-03T09:13:49;4.40;;;2.00;;
77012;SDS011;67260;53.130;17.982;2023-04-03T09:19:43;4.40;;;1.70;;
77012;SDS011;67260;53.130;17.982;2023-04-03T09:22:20;7.30;;;4.00;;
77012;SDS011;67260;53.130;17.982;2023-04-03T09:24:55;6.30;;;2.80;;
77012;SDS011;67260;53.130;17.982;2023-04-03T09:27:26;29.70;;;19.60;;
77012;SDS011;67260;53.130;17.982;2023-04-03T09:29:53;9.10;;;7.10;;
77012;SDS011;67260;53.130;17.982;2023-04-03T09:32:26;41.90;;;31.80;;
77012;SDS011;67260;53.130;17.982;2023-04-03T09:40:37;11.80;;;2.70;;
77012;SDS011;67260;53.130;17.982;2023-04-03T09:45:43;4.80;;;1.40;;
77012;SDS011;67260;53.130;17.982;2023-04-03T09:48:20;6.50;;;3.80;;
77012;SDS011;67260;53.130;17.982;2023-04-03T09:53:27;7.20;;;3.80;;
77012;SDS011;67260;53.130;17.982;2023-04-03T09:55:55;6.20;;;2.50;;
77012;SDS011;67260;53.130;17.982;2023-04-03T10:00:55;4.40;;;2.00;;
77012;SDS011;67260;53.130;17.982;2023-04-03T10:06:02;3.80;;;1.30;;
77012;SDS011;67260;53.130;17.982;2023-04-03T10:08:33;5.30;;;1.70;;
77012;SDS011;67260;53.130;17.982;2023-04-03T10:11:10;3.90;;;1.40;;
77012;SDS011;67260;53.130;17.982;2023-04-03T10:13:58;3.30;;;1.70;;
77012;SDS011;67260;53.130;17.982;2023-04-03T10:21:50;6.00;;;1.80;;
77012;SDS011;67260;53.130;17.982;2023-04-03T10:32:58;4.50;;;1.40;;
77012;SDS011;67260;53.130;17.982;2023-04-03T10:38:09;5.30;;;1.30;;
77012;SDS011;67260;53.130;17.982;2023-04-03T10:40:45;6.60;;;1.90;;
77012;SDS011;67260;53.130;17.982;2023-04-03T10:43:36;3.90;;;1.60;;
77012;SDS011;67260;53.130;17.982;2023-04-03T10:46:21;5.80;;;1.30;;
77012;SDS011;67260;53.130;17.982;2023-04-03T10:49:01;5.20;;;1.50;;
77012;SDS011;67260;53.130;17.982;2023-04-03T10:51:42;5.60;;;1.20;;
77012;SDS011;67260;53.130;17.982;2023-04-03T10:54:12;6.10;;;1.30;;
77012;SDS011;67260;53.130;17.982;2023-04-03T10:56:45;5.30;;;2.70;;
77012;SDS011;67260;53.130;17.982;2023-04-03T10:59:26;4.40;;;1.10;;
77012;SDS011;67260;53.130;17.982;2023-04-03T11:04:42;4.70;;;1.20;;
77012;SDS011;67260;53.130;17.982;2023-04-03T11:07:23;4.90;;;2.00;;
77012;SDS011;67260;53.130;17.982;2023-04-03T11:09:54;3.90;;;1.40;;
77012;SDS011;67260;53.130;17.982;2023-04-03T11:12:44;5.30;;;1.40;;
77012;SDS011;67260;53.130;17.982;2023-04-03T11:15:16;2.80;;;1.20;;
77012;SDS011;67260;53.130;17.982;2023-04-03T11:17:48;5.50;;;1.30;;
77012;SDS011;67260;53.130;17.982;2023-04-03T11:20:27;5.40;;;1.60;;
77012;SDS011;67260;53.130;17.982;2023-04-03T11:23:05;3.30;;;1.10;;
77012;SDS011;67260;53.130;17.982;2023-04-03T11:25:41;3.20;;;1.00;;
77012;SDS011;67260;53.130;17.982;2023-04-03T11:28:12;2.40;;;0.90;;
77012;SDS011;67260;53.130;17.982;2023-04-03T11:30:45;3.10;;;1.30;;
77012;SDS011;67260;53.130;17.982;2023-04-03T11:35:57;4.00;;;1.20;;
77012;SDS011;67260;53.130;17.982;2023-04-03T11:38:34;4.00;;;1.20;;
77012;SDS011;67260;53.130;17.982;2023-04-03T11:41:05;4.50;;;1.40;;
77012;SDS011;67260;53.130;17.982;2023-04-03T11:43:33;3.00;;;1.10;;
77012;SDS011;67260;53.130;17.982;2023-04-03T11:46:05;3.20;;;1.10;;
77012;SDS011;67260;53.130;17.982;2023-04-03T11:51:03;4.40;;;1.20;;
77012;SDS011;67260;53.130;17.982;2023-04-03T11:53:53;3.40;;;1.60;;
77012;SDS011;67260;53.130;17.982;2023-04-03T11:56:42;3.90;;;1.80;;
77012;SDS011;67260;53.130;17.982;2023-04-03T12:01:55;4.80;;;1.60;;
77012;SDS011;67260;53.130;17.982;2023-04-03T12:04:31;5.30;;;1.50;;
77012;SDS011;67260;53.130;17.982;2023-04-03T12:07:13;4.90;;;1.20;;
77012;SDS011;67260;53.130;17.982;2023-04-03T12:15:12;3.70;;;0.90;;
77012;SDS011;67260;53.130;17.982;2023-04-03T12:22:05;3.40;;;1.30;;
77012;SDS011;67260;53.130;17.982;2023-04-03T12:24:42;3.40;;;1.20;;
77012;SDS011;67260;53.130;17.982;2023-04-03T12:30:05;3.60;;;1.00;;
77012;SDS011;67260;53.130;17.982;2023-04-03T12:38:48;4.10;;;1.10;;
77012;SDS011;67260;53.130;17.982;2023-04-03T12:41:26;6.40;;;1.70;;
77012;SDS011;67260;53.130;17.982;2023-04-03T12:44:15;3.60;;;1.30;;
77012;SDS011;67260;53.130;17.982;2023-04-03T12:46:52;5.60;;;1.60;;
77012;SDS011;67260;53.130;17.982;2023-04-03T12:49:40;6.00;;;1.40;;
77012;SDS011;67260;53.130;17.982;2023-04-03T12:52:27;4.70;;;1.20;;
77012;SDS011;67260;53.130;17.982;2023-04-03T12:55:07;4.80;;;1.00;;
77012;SDS011;67260;53.130;17.982;2023-04-03T13:00:42;8.20;;;4.70;;
77012;SDS011;67260;53.130;17.982;2023-04-03T13:03:19;4.10;;;1.30;;
77012;SDS011;67260;53.130;17.982;2023-04-03T13:05:54;4.30;;;1.40;;
77012;SDS011;67260;53.130;17.982;2023-04-03T13:08:28;5.50;;;1.30;;
77012;SDS011;67260;53.130;17.982;2023-04-03T13:11:05;3.60;;;1.10;;
77012;SDS011;67260;53.130;17.982;2023-04-03T13:13:38;3.70;;;0.90;;
77012;SDS011;67260;53.130;17.982;2023-04-03T13:18:36;2.30;;;0.80;;
77012;SDS011;67260;53.130;17.982;2023-04-03T13:21:04;3.80;;;1.10;;
77012;SDS011;67260;53.130;17.982;2023-04-03T13:23:35;3.00;;;0.80;;
77012;SDS011;67260;53.130;17.982;2023-04-03T13:26:04;3.20;;;1.20;;
77012;SDS011;67260;53.130;17.982;2023-04-03T13:28:32;3.30;;;1.10;;
77012;SDS011;67260;53.130;17.982;2023-04-03T13:33:29;3.80;;;1.00;;
77012;SDS011;67260;53.130;17.982;2023-04-03T13:36:00;4.20;;;1.20;;
77012;SDS011;67260;53.130;17.982;2023-04-03T13:38:32;4.50;;;1.30;;
77012;SDS011;67260;53.130;17.982;2023-04-03T13:41:04;4.20;;;1.30;;
77012;SDS011;67260;53.130;17.982;2023-04-03T13:43:49;5.10;;;1.40;;
77012;SDS011;67260;53.130;17.982;2023-04-03T13:48:47;3.40;;;1.00;;
77012;SDS011;67260;53.130;17.982;2023-04-03T13:51:21;6.30;;;1.70;;
77012;SDS011;67260;53.130;17.982;2023-04-03T13:53:54;4.40;;;1.20;;
77012;SDS011;67260;53.130;17.982;2023-04-03T14:01:37;11.50;;;1.80;;
77012;SDS011;67260;53.130;17.982;2023-04-03T14:04:17;6.40;;;1.80;;
77012;SDS011;67260;53.130;17.982;2023-04-03T14:06:47;5.80;;;1.60;;
77012;SDS011;67260;53.130;17.982;2023-04-03T14:09:14;6.10;;;1.40;;
77012;SDS011;67260;53.130;17.982;2023-04-03T14:11:42;6.20;;;1.70;;
77012;SDS011;67260;53.130;17.982;2023-04-03T14:14:16;7.50;;;2.00;;
77012;SDS011;67260;53.130;17.982;2023-04-03T14:16:46;4.50;;;1.60;;
77012;SDS011;67260;53.130;17.982;2023-04-03T14:19:20;4.50;;;1.20;;
77012;SDS011;67260;53.130;17.982;2023-04-03T14:21:47;2.50;;;0.90;;
77012;SDS011;67260;53.130;17.982;2023-04-03T14:24:16;5.20;;;1.70;;
77012;SDS011;67260;53.130;17.982;2023-04-03T14:29:10;5.30;;;1.50;;
77012;SDS011;67260;53.130;17.982;2023-04-03T14:31:37;6.00;;;1.60;;
77012;SDS011;67260;53.130;17.982;2023-04-03T14:34:04;5.30;;;2.10;;
77012;SDS011;67260;53.130;17.982;2023-04-03T14:36:30;6.60;;;1.70;;
77012;SDS011;67260;53.130;17.982;2023-04-03T14:38:57;6.40;;;1.40;;
77012;SDS011;67260;53.130;17.982;2023-04-03T14:41:25;4.30;;;1.70;;
77012;SDS011;67260;53.130;17.982;2023-04-03T14:43:52;3.90;;;1.60;;
77012;SDS011;67260;53.130;17.982;2023-04-03T14:46:21;6.20;;;1.40;;
77012;SDS011;67260;53.130;17.982;2023-04-03T14:48:53;3.20;;;1.30;;
77012;SDS011;67260;53.130;17.982;2023-04-03T14:51:20;7.20;;;2.30;;
77012;SDS011;67260;53.130;17.982;2023-04-03T14:53:46;27.10;;;15.70;;
77012;SDS011;67260;53.130;17.982;2023-04-03T14:56:18;19.80;;;11.50;;
77012;SDS011;67260;53.130;17.982;2023-04-03T14:58:56;7.90;;;3.90;;
77012;SDS011;67260;53.130;17.982;2023-04-03T15:01:24;8.30;;;2.40;;
77012;SDS011;67260;53.130;17.982;2023-04-03T15:03:51;10.30;;;2.90;;
77012;SDS011;67260;53.130;17.982;2023-04-03T15:06:19;21.00;;;9.20;;
77012;SDS011;67260;53.130;17.982;2023-04-03T15:08:46;63.40;;;27.30;;
77012;SDS011;67260;53.130;17.982;2023-04-03T15:11:14;51.60;;;24.80;;
77012;SDS011;67260;53.130;17.982;2023-04-03T15:13:40;24.50;;;12.30;;
77012;SDS011;67260;53.130;17.982;2023-04-03T15:16:16;23.10;;;15.90;;
77012;SDS011;67260;53.130;17.982;2023-04-03T15:21:12;8.30;;;5.00;;
77012;SDS011;67260;53.130;17.982;2023-04-03T15:23:39;59.10;;;24.60;;
77012;SDS011;67260;53.130;17.982;2023-04-03T15:26:07;138.30;;;51.60;;
77012;SDS011;67260;53.130;17.982;2023-04-03T15:28:35;25.40;;;13.40;;
77012;SDS011;67260;53.130;17.982;2023-04-03T15:31:06;11.90;;;6.00;;
77012;SDS011;67260;53.130;17.982;2023-04-03T15:33:34;21.90;;;10.70;;
77012;SDS011;67260;53.130;17.982;2023-04-03T15:36:02;12.90;;;6.00;;
77012;SDS011;67260;53.130;17.982;2023-04-03T15:38:31;5.20;;;2.70;;
77012;SDS011;67260;53.130;17.982;2023-04-03T15:40:57;10.90;;;5.80;;
77012;SDS011;67260;53.130;17.982;2023-04-03T15:43:24;10.60;;;6.00;;
77012;SDS011;67260;53.130;17.982;2023-04-03T15:45:55;6.60;;;2.80;;
77012;SDS011;67260;53.130;17.982;2023-04-03T15:48:25;7.90;;;3.20;;
77012;SDS011;67260;53.130;17.982;2023-04-03T15:50:54;7.30;;;2.00;;
77012;SDS011;67260;53.130;17.982;2023-04-03T15:53:21;6.40;;;2.90;;
77012;SDS011;67260;53.130;17.982;2023-04-03T15:55:47;4.30;;;1.30;;
77012;SDS011;67260;53.130;17.982;2023-04-03T15:58:13;5.10;;;1.50;;
77012;SDS011;67260;53.130;17.982;2023-04-03T16:00:39;3.80;;;1.50;;
77012;SDS011;67260;53.130;17.982;2023-04-03T16:03:08;19.40;;;7.20;;
77012;SDS011;67260;53.130;17.982;2023-04-03T16:05:38;21.70;;;7.00;;
77012;SDS011;67260;53.130;17.982;2023-04-03T16:08:06;21.50;;;5.60;;
77012;SDS011;67260;53.130;17.982;2023-04-03T16:10:34;22.10;;;6.60;;
77012;SDS011;67260;53.130;17.982;2023-04-03T16:13:01;13.70;;;3.50;;
77012;SDS011;67260;53.130;17.982;2023-04-03T16:15:28;13.60;;;4.40;;
77012;SDS011;67260;53.130;17.982;2023-04-03T16:17:57;10.30;;;3.80;;
77012;SDS011;67260;53.130;17.982;2023-04-03T16:20:24;11.50;;;4.00;;
77012;SDS011;67260;53.130;17.982;2023-04-03T16:22:53;12.20;;;4.20;;
77012;SDS011;67260;53.130;17.982;2023-04-03T16:25:22;12.00;;;5.20;;
77012;SDS011;67260;53.130;17.982;2023-04-03T16:27:48;9.60;;;3.30;;
77012;SDS011;67260;53.130;17.982;2023-04-03T16:30:20;13.00;;;5.40;;
77012;SDS011;67260;53.130;17.982;2023-04-03T16:32:48;12.00;;;4.50;;
77012;SDS011;67260;53.130;17.982;2023-04-03T16:35:19;9.10;;;3.50;;
77012;SDS011;67260;53.130;17.982;2023-04-03T16:37:47;18.50;;;6.80;;
77012;SDS011;67260;53.130;17.982;2023-04-03T16:40:15;10.00;;;4.10;;
77012;SDS011;67260;53.130;17.982;2023-04-03T16:42:44;6.80;;;2.30;;
77012;SDS011;67260;53.130;17.982;2023-04-03T16:45:13;12.80;;;5.40;;
77012;SDS011;67260;53.130;17.982;2023-04-03T16:47:41;10.60;;;3.90;;
77012;SDS011;67260;53.130;17.982;2023-04-03T16:50:08;8.60;;;3.00;;
77012;SDS011;67260;53.130;17.982;2023-04-03T16:52:34;9.60;;;3.60;;
77012;SDS011;67260;53.130;17.982;2023-04-03T16:55:01;14.00;;;4.30;;
77012;SDS011;67260;53.130;17.982;2023-04-03T16:59:54;8.40;;;3.10;;
77012;SDS011;67260;53.130;17.982;2023-04-03T17:02:21;9.80;;;4.10;;